Time;durP1;ratioP1;P1;durP2;ratioP2;P2;SDS_P1;SDS_P2;PMS_P1;PMS_P2;Temp;Humidity;BMP_temperature;BMP_pressure;BME280_temperature;BME280_humidity;BME280_pressure;Samples;Min_cycle;Max_cycle;Signal;HPM_P1;HPM_P2
2024/03/24 00:00:05;;;;;;;5.05;1.90;;;6.50;99.90;;;;;;4162183;28;20026;-67
2024/03/24 00:02:06;;;;;;;4.57;2.00;;;6.40;99.90;;;;;;4162174;28;20036;-65
2024/03/24 00:04:06;;;;;;;7.57;1.98;;;6.50;99.90;;;;;;4154846;28;20034;-65
2024/03/24 00:06:07;;;;;;;4.35;1.90;;;6.40;99.90;;;;;;4160303;28;20041;-65
2024/03/24 00:08:07;;;;;;;5.53;1.83;;;6.50;99.90;;;;;;4162183;28;20112;-66
2024/03/24 00:10:08;;;;;;;4.93;2.35;;;6.40;99.90;;;;;;4160451;28;20164;-66
2024/03/24 00:12:09;;;;;;;6.68;1.92;;;6.40;99.90;;;;;;4161481;28;20022;-65
2024/03/24 00:14:10;;;;;;;4.05;2.17;;;6.40;99.90;;;;;;4162347;28;20049;-65
2024/03/24 00:16:11;;;;;;;3.40;2.08;;;6.50;99.90;;;;;;4161480;28;20137;-66
2024/03/24 00:18:11;;;;;;;4.30;2.17;;;6.50;99.90;;;;;;4162046;28;20056;-65
2024/03/24 00:20:13;;;;;;;4.18;1.90;;;6.50;99.90;;;;;;4161597;28;20121;-65
2024/03/24 00:22:13;;;;;;;3.75;2.22;;;6.50;99.90;;;;;;4160698;28;20481;-65
2024/03/24 00:24:14;;;;;;;3.88;2.30;;;6.50;99.90;;;;;;4161983;28;20041;-65
2024/03/24 00:26:15;;;;;;;6.82;2.58;;;6.50;99.90;;;;;;4161387;28;20548;-65
2024/03/24 00:28:15;;;;;;;4.97;2.30;;;6.50;99.90;;;;;;4162182;28;20037;-65
2024/03/24 00:30:16;;;;;;;4.57;2.25;;;6.40;99.90;;;;;;4161004;28;20129;-65
2024/03/24 00:32:16;;;;;;;4.57;2.20;;;6.50;99.90;;;;;;4161949;28;20038;-64
2024/03/24 00:34:17;;;;;;;5.10;2.40;;;6.60;99.90;;;;;;4162277;28;20025;-65
2024/03/24 00:36:18;;;;;;;6.75;2.75;;;6.50;99.90;;;;;;4161406;28;20092;-65
2024/03/24 00:38:18;;;;;;;4.95;2.60;;;6.50;99.90;;;;;;4162236;28;20121;-66
2024/03/24 00:40:19;;;;;;;4.07;2.35;;;6.50;99.90;;;;;;4160710;28;20125;-65
2024/03/24 00:42:19;;;;;;;6.07;2.50;;;6.50;99.90;;;;;;4162189;28;20033;-66
2024/03/24 00:44:20;;;;;;;4.93;2.60;;;6.50;99.90;;;;;;4160499;28;20505;-66
2024/03/24 00:46:20;;;;;;;6.13;2.90;;;6.50;99.90;;;;;;4161379;28;20413;-65
2024/03/24 00:48:21;;;;;;;4.93;2.35;;;6.50;99.90;;;;;;4156297;28;20056;-65
2024/03/24 00:50:22;;;;;;;4.45;2.50;;;6.50;99.90;;;;;;4161760;28;20041;-65
2024/03/24 00:52:22;;;;;;;4.93;2.67;;;6.50;99.90;;;;;;4163669;28;20056;-65
2024/03/24 00:54:23;;;;;;;4.15;2.30;;;6.50;99.90;;;;;;4165441;28;20113;-66
2024/03/24 00:56:23;;;;;;;6.32;2.90;;;6.50;99.90;;;;;;4164675;28;20036;-65
2024/03/24 00:58:24;;;;;;;3.72;2.50;;;6.50;99.90;;;;;;4162893;28;20502;-65
2024/03/24 01:00:25;;;;;;;7.68;3.05;;;6.50;99.90;;;;;;4164470;28;20379;-65
2024/03/24 01:02:26;;;;;;;3.63;2.40;;;6.50;99.90;;;;;;4163428;28;20049;-65
2024/03/24 01:04:26;;;;;;;7.80;3.10;;;6.60;99.90;;;;;;4163648;28;20045;-65
2024/03/24 01:06:27;;;;;;;5.45;2.78;;;6.60;99.90;;;;;;4164075;28;20120;-65
2024/03/24 01:08:27;;;;;;;5.65;2.65;;;6.50;99.90;;;;;;4164229;28;20032;-66
2024/03/24 01:10:28;;;;;;;5.35;2.50;;;6.60;99.90;;;;;;4162579;28;20025;-66
2024/03/24 01:12:29;;;;;;;7.40;3.40;;;6.50;99.90;;;;;;4196543;28;20029;-66
2024/03/24 01:14:29;;;;;;;6.80;2.60;;;6.50;99.90;;;;;;4165101;28;20215;-66
2024/03/24 01:16:30;;;;;;;4.90;2.28;;;6.50;99.90;;;;;;4164288;28;20029;-65
2024/03/24 01:18:31;;;;;;;5.28;2.92;;;6.50;99.90;;;;;;4164587;28;20116;-66
2024/03/24 01:20:32;;;;;;;6.38;3.10;;;6.50;99.90;;;;;;4164406;28;20390;-66
2024/03/24 01:22:32;;;;;;;6.88;3.08;;;6.50;99.90;;;;;;4164887;28;20029;-66
2024/03/24 01:24:33;;;;;;;8.48;3.15;;;6.50;99.90;;;;;;4160043;28;20113;-66
2024/03/24 01:26:35;;;;;;;6.68;3.63;;;6.60;99.90;;;;;;4158803;28;20363;-64
2024/03/24 01:28:36;;;;;;;8.18;3.65;;;6.50;99.90;;;;;;4158328;28;20034;-65
2024/03/24 01:30:37;;;;;;;6.93;3.05;;;6.60;99.90;;;;;;4157262;28;20042;-65
2024/03/24 01:32:37;;;;;;;9.95;3.17;;;6.60;99.90;;;;;;4155024;28;20560;-65
2024/03/24 01:34:38;;;;;;;5.95;3.22;;;6.60;99.90;;;;;;4164640;28;20033;-65
2024/03/24 01:36:38;;;;;;;7.35;2.90;;;6.60;99.90;;;;;;4156993;28;20026;-65
2024/03/24 01:38:39;;;;;;;5.25;2.85;;;6.60;99.90;;;;;;4162944;28;20091;-65
2024/03/24 01:40:47;;;;;;;6.63;3.20;;;6.60;99.90;;;;;;4160985;28;20482;-65
2024/03/24 01:42:48;;;;;;;7.47;3.42;;;6.60;99.90;;;;;;4160461;28;20387;-59
2024/03/24 01:44:48;;;;;;;6.03;3.10;;;6.70;99.90;;;;;;4163540;28;20029;-69
2024/03/24 01:46:49;;;;;;;4.60;3.15;;;6.70;99.90;;;;;;4163466;28;20471;-70
2024/03/24 01:48:50;;;;;;;6.40;3.38;;;6.70;99.90;;;;;;4164588;28;20089;-69
2024/03/24 01:50:51;;;;;;;5.20;3.22;;;6.70;99.90;;;;;;4162362;28;20044;-69
2024/03/24 01:52:51;;;;;;;8.38;3.67;;;6.80;99.90;;;;;;4161654;28;20049;-69
2024/03/24 01:54:52;;;;;;;4.78;2.83;;;6.80;99.90;;;;;;4164305;28;20033;-69
2024/03/24 01:56:53;;;;;;;5.10;2.63;;;6.70;99.90;;;;;;4163645;28;20421;-69
2024/03/24 01:58:54;;;;;;;8.13;3.38;;;6.80;99.90;;;;;;4164178;28;20359;-69
2024/03/24 02:00:55;;;;;;;8.02;3.00;;;6.70;99.90;;;;;;4163440;28;20382;-69
2024/03/24 02:02:55;;;;;;;4.82;2.95;;;6.80;99.90;;;;;;4162331;28;20033;-70
2024/03/24 02:04:56;;;;;;;6.53;3.08;;;6.80;99.90;;;;;;4164344;28;20382;-70
2024/03/24 02:06:57;;;;;;;8.95;3.40;;;6.90;99.90;;;;;;4163598;28;20022;-70
2024/03/24 02:08:59;;;;;;;;;;;6.80;99.90;;;;;;4164724;28;20513;-71
2024/03/24 02:11:00;;;;;;;4.22;2.78;;;6.80;99.90;;;;;;4163287;28;19909;-70
2024/03/24 02:13:01;;;;;;;9.88;3.67;;;6.80;99.90;;;;;;4164167;28;20056;-71
2024/03/24 02:15:01;;;;;;;7.47;2.97;;;6.80;99.90;;;;;;4163621;28;20033;-67
2024/03/24 02:17:02;;;;;;;6.22;3.30;;;6.80;99.90;;;;;;4163584;28;20437;-68
2024/03/24 02:19:06;;;;;;;5.28;3.22;;;6.90;99.90;;;;;;4162838;28;20152;-70
2024/03/24 02:21:06;;;;;;;7.25;3.78;;;6.90;99.90;;;;;;4159927;28;20037;-71
2024/03/24 02:23:08;;;;;;;6.53;3.15;;;6.90;99.90;;;;;;4164246;28;20037;-71
2024/03/24 02:25:09;;;;;;;8.20;3.10;;;6.80;99.90;;;;;;4161973;28;20488;-72
2024/03/24 02:27:09;;;;;;;5.43;3.03;;;6.80;99.90;;;;;;4163243;28;20116;-72
2024/03/24 02:29:12;;;;;;;6.32;3.08;;;6.80;99.90;;;;;;4163591;28;20042;-72
2024/03/24 02:31:15;;;;;;;10.32;3.72;;;6.80;99.90;;;;;;4163139;28;20035;-71
2024/03/24 02:33:16;;;;;;;7.65;3.08;;;6.80;99.90;;;;;;4163781;28;20072;-71
2024/03/24 02:35:16;;;;;;;6.85;3.00;;;6.80;99.90;;;;;;4163063;28;20486;-72
2024/03/24 02:37:17;;;;;;;5.32;3.38;;;6.80;99.90;;;;;;4163203;28;20049;-72
2024/03/24 02:39:18;;;;;;;6.32;3.60;;;6.70;99.90;;;;;;4163444;28;20044;-73
2024/03/24 02:41:19;;;;;;;7.72;3.20;;;6.70;99.90;;;;;;4174720;28;20401;-73
2024/03/24 02:43:19;;;;;;;5.32;3.17;;;6.80;99.90;;;;;;4159556;28;20108;-74
2024/03/24 02:45:20;;;;;;;5.20;2.45;;;6.80;99.90;;;;;;4158178;28;20044;-74
2024/03/24 02:47:20;;;;;;;6.07;3.25;;;6.80;99.90;;;;;;4162049;28;20116;-74
2024/03/24 02:49:21;;;;;;;7.97;3.40;;;6.80;99.90;;;;;;4163119;28;20125;-73
2024/03/24 02:51:21;;;;;;;10.18;3.15;;;6.80;99.90;;;;;;4144353;28;20038;-74
2024/03/24 02:53:22;;;;;;;4.20;2.80;;;6.70;99.90;;;;;;4163562;28;20046;-67
2024/03/24 02:55:25;;;;;;;7.88;3.35;;;6.70;99.90;;;;;;4160970;28;20037;-66
2024/03/24 02:57:27;;;;;;;;;;;6.70;99.90;;;;;;4163839;28;20034;-67
2024/03/24 02:59:27;;;;;;;9.23;3.25;;;6.70;99.90;;;;;;4163332;28;19913;-67
2024/03/24 03:01:28;;;;;;;7.00;3.13;;;6.60;99.90;;;;;;4162328;28;20087;-66
2024/03/24 03:03:28;;;;;;;5.75;3.15;;;6.60;99.90;;;;;;4163200;28;20051;-67
2024/03/24 03:05:29;;;;;;;5.78;3.10;;;6.60;99.90;;;;;;4158977;28;20045;-67
2024/03/24 03:07:29;;;;;;;7.95;3.17;;;6.60;99.90;;;;;;4163468;28;20041;-67
2024/03/24 03:09:31;;;;;;;9.48;3.28;;;6.60;99.90;;;;;;4163378;28;20106;-67
2024/03/24 03:11:32;;;;;;;6.32;3.28;;;6.60;99.90;;;;;;4161912;28;20401;-67
2024/03/24 03:13:33;;;;;;;5.88;3.03;;;6.70;99.90;;;;;;4160613;28;20057;-66
2024/03/24 03:15:33;;;;;;;5.00;2.72;;;6.70;99.90;;;;;;4160529;28;20032;-66
2024/03/24 03:17:34;;;;;;;8.32;3.10;;;6.70;99.90;;;;;;4163060;28;20060;-67
2024/03/24 03:19:34;;;;;;;7.22;3.55;;;6.70;99.90;;;;;;4163123;28;20022;-67
2024/03/24 03:21:35;;;;;;;5.95;3.25;;;6.70;99.90;;;;;;4161690;28;20091;-67
2024/03/24 03:23:35;;;;;;;4.63;2.50;;;6.70;99.90;;;;;;4162986;28;20033;-67
2024/03/24 03:25:36;;;;;;;6.93;3.33;;;6.70;99.90;;;;;;4160716;28;20017;-67
2024/03/24 03:27:37;;;;;;;6.40;2.70;;;6.70;99.90;;;;;;4161349;28;20025;-67
2024/03/24 03:29:37;;;;;;;5.68;2.92;;;6.70;99.90;;;;;;4160302;28;20025;-67
2024/03/24 03:31:38;;;;;;;7.70;3.30;;;6.70;99.90;;;;;;4159730;28;20478;-67
2024/03/24 03:33:39;;;;;;;5.93;3.17;;;6.70;99.90;;;;;;4162715;28;20048;-67
2024/03/24 03:35:39;;;;;;;6.13;3.28;;;6.70;99.90;;;;;;4161999;28;20156;-67
2024/03/24 03:37:40;;;;;;;7.07;3.58;;;6.70;99.90;;;;;;4161039;28;20075;-67
2024/03/24 03:39:40;;;;;;;7.90;3.13;;;6.70;99.90;;;;;;4160596;28;20052;-67
2024/03/24 03:41:43;;;;;;;8.15;3.40;;;6.70;99.90;;;;;;4161032;28;20029;-67
2024/03/24 03:43:44;;;;;;;10.63;3.38;;;6.70;99.90;;;;;;4162461;28;20113;-67
2024/03/24 03:45:44;;;;;;;9.48;3.42;;;6.80;99.90;;;;;;4161793;28;20358;-67
2024/03/24 03:47:45;;;;;;;7.63;3.60;;;6.70;99.90;;;;;;4162133;28;20037;-67
2024/03/24 03:49:52;;;;;;;8.80;3.65;;;6.70;99.90;;;;;;4162670;28;20108;-67
2024/03/24 03:51:56;;;;;;;8.20;3.15;;;6.80;99.90;;;;;;4160428;28;20580;-67
2024/03/24 03:53:58;;;;;;;9.07;3.60;;;6.80;99.90;;;;;;4159667;28;20116;-67
2024/03/24 03:55:58;;;;;;;8.20;3.47;;;6.80;99.90;;;;;;4152277;28;20466;-67
2024/03/24 03:58:00;;;;;;;10.85;3.90;;;6.70;99.90;;;;;;4154736;28;20067;-67
2024/03/24 04:00:03;;;;;;;7.55;3.38;;;6.80;99.90;;;;;;4161237;28;20478;-67
2024/03/24 04:02:06;;;;;;;6.88;3.30;;;6.80;99.90;;;;;;4159654;28;20382;-68
2024/03/24 04:04:08;;;;;;;6.70;3.33;;;6.80;99.90;;;;;;4162812;28;20033;-65
2024/03/24 04:06:09;;;;;;;11.52;4.25;;;6.80;99.90;;;;;;4161291;28;20121;-64
2024/03/24 04:08:09;;;;;;;12.75;3.97;;;6.80;99.90;;;;;;4162347;28;20356;-64
2024/03/24 04:10:10;;;;;;;8.43;3.88;;;6.80;99.90;;;;;;4161590;28;20025;-64
2024/03/24 04:12:11;;;;;;;7.10;3.58;;;6.80;99.90;;;;;;4160822;28;20053;-63
2024/03/24 04:14:11;;;;;;;8.63;3.88;;;6.80;99.90;;;;;;4161662;28;20022;-64
2024/03/24 04:16:12;;;;;;;7.65;3.38;;;6.80;99.90;;;;;;4160239;28;20029;-64
2024/03/24 04:18:12;;;;;;;8.00;3.30;;;6.80;99.90;;;;;;4162137;28;20034;-64
2024/03/24 04:20:14;;;;;;;6.90;2.70;;;6.80;99.90;;;;;;4160411;28;20493;-64
2024/03/24 04:22:14;;;;;;;7.63;3.47;;;6.80;99.90;;;;;;4161110;28;20175;-64
2024/03/24 04:24:15;;;;;;;7.00;3.05;;;6.80;99.90;;;;;;4159480;28;20033;-64
2024/03/24 04:26:15;;;;;;;11.88;3.72;;;6.80;99.90;;;;;;4161007;28;20378;-64
2024/03/24 04:28:16;;;;;;;9.70;3.70;;;6.80;99.90;;;;;;4162340;28;20041;-63
2024/03/24 04:30:17;;;;;;;9.75;3.58;;;6.80;99.90;;;;;;4161553;28;20044;-64
2024/03/24 04:32:17;;;;;;;8.23;3.05;;;6.90;99.90;;;;;;4160293;28;20120;-64
2024/03/24 04:34:18;;;;;;;7.50;2.97;;;6.80;99.90;;;;;;4162290;28;20029;-64
2024/03/24 04:36:18;;;;;;;7.07;2.90;;;6.80;99.90;;;;;;4161398;28;20038;-63
2024/03/24 04:38:19;;;;;;;7.97;3.20;;;6.80;99.90;;;;;;4161651;28;20045;-64
2024/03/24 04:40:19;;;;;;;5.63;2.92;;;6.70;99.90;;;;;;4160433;28;20034;-64
2024/03/24 04:42:20;;;;;;;7.88;2.65;;;6.80;99.90;;;;;;4160544;28;20056;-64
2024/03/24 04:44:21;;;;;;;8.80;3.22;;;6.80;99.90;;;;;;4160642;28;20038;-64
2024/03/24 04:46:21;;;;;;;6.18;2.88;;;6.80;99.90;;;;;;4161108;28;20053;-64
2024/03/24 04:48:22;;;;;;;6.15;2.70;;;6.80;99.90;;;;;;4160751;28;20494;-63
2024/03/24 04:50:23;;;;;;;6.75;2.63;;;6.80;99.90;;;;;;4158577;28;20068;-64
2024/03/24 04:52:24;;;;;;;6.30;2.65;;;6.80;99.90;;;;;;4158912;28;20542;-63
2024/03/24 04:54:26;;;;;;;7.68;2.75;;;6.80;99.90;;;;;;4162061;28;20117;-64
2024/03/24 04:56:27;;;;;;;5.28;2.20;;;6.80;99.90;;;;;;4159864;28;20472;-63
2024/03/24 04:58:28;;;;;;;6.75;2.90;;;6.80;99.90;;;;;;4160998;28;20049;-63
2024/03/24 05:00:28;;;;;;;5.57;2.35;;;6.80;99.90;;;;;;4161408;28;20159;-64
2024/03/24 05:02:29;;;;;;;6.25;2.80;;;6.80;99.90;;;;;;4162063;28;20040;-64
2024/03/24 05:04:29;;;;;;;5.75;2.58;;;6.80;99.90;;;;;;4158466;28;20029;-63
2024/03/24 05:06:31;;;;;;;4.93;2.22;;;6.80;99.90;;;;;;4156507;28;20045;-64
2024/03/24 05:08:36;;;;;;;7.68;2.63;;;6.70;99.90;;;;;;4158036;28;20076;-63
2024/03/24 05:10:39;;;;;;;5.32;2.25;;;6.70;99.90;;;;;;4157807;28;20567;-64
2024/03/24 05:12:40;;;;;;;7.45;2.60;;;6.80;99.90;;;;;;4158887;28;20025;-60
2024/03/24 05:14:41;;;;;;;7.72;2.22;;;6.80;99.90;;;;;;4157295;28;20037;-64
2024/03/24 05:16:41;;;;;;;4.22;2.38;;;6.70;99.90;;;;;;4154087;28;20036;-64
2024/03/24 05:18:42;;;;;;;7.70;2.67;;;6.70;99.90;;;;;;4158705;28;20061;-64
2024/03/24 05:20:42;;;;;;;5.07;2.15;;;6.60;99.90;;;;;;4154902;28;20033;-64
2024/03/24 05:22:43;;;;;;;5.25;2.10;;;6.60;99.90;;;;;;4154787;28;20030;-64
2024/03/24 05:24:44;;;;;;;4.65;2.20;;;6.60;99.90;;;;;;4152520;28;20040;-64
2024/03/24 05:26:44;;;;;;;4.65;2.38;;;6.60;99.90;;;;;;4155922;28;20120;-64
2024/03/24 05:28:45;;;;;;;4.25;2.20;;;6.60;99.90;;;;;;4157735;28;20053;-64
2024/03/24 05:30:51;;;;;;;5.47;2.33;;;6.60;99.90;;;;;;4156354;28;20046;-64
2024/03/24 05:32:52;;;;;;;5.75;2.53;;;6.60;99.90;;;;;;4154564;28;20059;-64
2024/03/24 05:34:53;;;;;;;6.32;2.53;;;6.60;99.90;;;;;;4156760;28;20061;-64
2024/03/24 05:36:53;;;;;;;3.92;2.45;;;6.60;99.90;;;;;;4158833;28;20042;-64
2024/03/24 05:38:54;;;;;;;5.70;2.75;;;6.60;99.90;;;;;;4159041;28;20513;-64
2024/03/24 05:41:06;;;;;;;6.80;3.03;;;6.70;99.90;;;;;;4160323;28;20120;-64
2024/03/24 05:43:08;;;;;;;9.10;3.30;;;6.60;99.90;;;;;;4156873;28;20033;-64
2024/03/24 05:45:09;;;;;;;6.18;3.20;;;6.60;99.90;;;;;;4155586;28;20037;-64
2024/03/24 05:47:09;;;;;;;7.63;3.10;;;6.70;99.90;;;;;;4160288;28;20399;-66
2024/03/24 05:49:11;;;;;;;6.70;3.83;;;6.70;99.90;;;;;;4159333;28;20032;-64
2024/03/24 05:51:11;;;;;;;11.07;3.92;;;6.70;99.90;;;;;;4158593;28;20033;-65
2024/03/24 05:53:12;;;;;;;7.85;3.50;;;6.70;99.90;;;;;;4159583;28;20048;-64
2024/03/24 05:55:15;;;;;;;6.28;3.30;;;6.80;99.90;;;;;;4160056;28;20044;-64
2024/03/24 05:57:16;;;;;;;9.60;3.40;;;6.80;99.90;;;;;;4157923;28;20485;-64
2024/03/24 05:59:17;;;;;;;7.38;3.42;;;6.80;99.90;;;;;;4161117;28;20037;-64
2024/03/24 06:01:18;;;;;;;9.32;3.78;;;6.80;99.90;;;;;;4159129;28;20120;-64
2024/03/24 06:03:18;;;;;;;15.07;5.57;;;6.90;99.90;;;;;;4160446;28;20068;-64
2024/03/24 06:05:19;;;;;;;8.45;3.10;;;6.90;99.90;;;;;;4157026;28;20510;-64
2024/03/24 06:07:20;;;;;;;6.32;1.77;;;6.60;99.90;;;;;;4159117;28;20733;-64
2024/03/24 06:09:20;;;;;;;6.05;1.65;;;6.00;99.90;;;;;;4153417;28;20041;-64
2024/03/24 06:11:22;;;;;;;1.98;1.10;;;5.70;99.90;;;;;;4159543;28;20049;-64
2024/03/24 06:13:22;;;;;;;3.67;1.00;;;5.60;99.90;;;;;;4190771;28;20040;-64
2024/03/24 06:15:23;;;;;;;1.80;0.98;;;5.60;99.90;;;;;;4157469;28;20037;-63
2024/03/24 06:17:24;;;;;;;3.38;1.20;;;5.60;99.90;;;;;;4159147;28;20084;-63
2024/03/24 06:19:24;;;;;;;5.03;0.90;;;5.60;99.90;;;;;;4153201;28;20481;-65
2024/03/24 06:21:25;;;;;;;4.78;1.33;;;5.50;99.90;;;;;;4159360;28;20409;-64
2024/03/24 06:23:26;;;;;;;4.28;1.40;;;5.40;99.90;;;;;;4157712;28;20026;-66
2024/03/24 06:25:26;;;;;;;3.30;1.30;;;5.30;99.90;;;;;;4170254;28;21140;-66
2024/03/24 06:27:27;;;;;;;4.25;1.80;;;5.30;99.90;;;;;;4150094;28;20040;-66
2024/03/24 06:29:27;;;;;;;5.55;1.58;;;5.30;99.90;;;;;;4161601;28;20044;-67
2024/03/24 06:31:28;;;;;;;5.13;1.58;;;5.30;99.90;;;;;;4163013;28;20141;-66
2024/03/24 06:33:28;;;;;;;5.32;1.98;;;5.20;99.90;;;;;;4161783;28;20116;-67
2024/03/24 06:35:29;;;;;;;4.35;1.38;;;5.10;99.90;;;;;;4161362;28;20033;-66
2024/03/24 06:37:30;;;;;;;4.60;1.17;;;5.10;99.90;;;;;;4163392;28;20057;-66
2024/03/24 06:39:30;;;;;;;4.38;1.50;;;5.10;99.90;;;;;;4159497;28;20066;-67
2024/03/24 06:41:31;;;;;;;3.20;1.40;;;5.10;99.90;;;;;;4162944;28;20037;-67
2024/03/24 06:43:42;;;;;;;3.53;1.15;;;5.20;99.90;;;;;;4158842;28;20442;-67
2024/03/24 06:45:46;;;;;;;2.40;1.35;;;5.20;99.90;;;;;;4160194;28;20033;-67
2024/03/24 06:47:46;;;;;;;6.10;1.73;;;5.30;99.90;;;;;;4162666;28;20029;-67
2024/03/24 06:49:47;;;;;;;4.22;1.23;;;5.30;99.90;;;;;;4159714;28;20422;-67
2024/03/24 06:51:48;;;;;;;1.88;1.20;;;5.30;99.90;;;;;;4174653;28;20032;-67
2024/03/24 06:53:48;;;;;;;4.40;1.30;;;5.40;99.90;;;;;;4168494;28;20045;-67
2024/03/24 06:55:51;;;;;;;4.20;1.50;;;5.50;99.90;;;;;;4159173;28;20029;-67
2024/03/24 06:57:55;;;;;;;5.03;1.70;;;5.50;99.90;;;;;;4152387;28;20446;-68
2024/03/24 06:59:56;;;;;;;2.35;1.42;;;5.60;99.90;;;;;;4162032;28;20025;-68
2024/03/24 07:01:57;;;;;;;6.10;1.17;;;5.60;99.90;;;;;;4162671;28;20052;-68
2024/03/24 07:03:57;;;;;;;1.88;1.17;;;5.60;99.90;;;;;;4163306;28;20478;-67
2024/03/24 07:05:58;;;;;;;2.28;1.50;;;5.70;99.90;;;;;;4162651;28;20372;-68
2024/03/24 07:07:58;;;;;;;5.97;1.73;;;5.70;99.90;;;;;;4163171;28;20386;-67
2024/03/24 07:09:59;;;;;;;3.08;1.52;;;5.70;99.90;;;;;;4163235;28;20360;-67
2024/03/24 07:12:00;;;;;;;3.78;1.67;;;5.80;99.90;;;;;;4162827;28;20038;-68
2024/03/24 07:14:00;;;;;;;5.13;1.85;;;5.90;99.90;;;;;;4159507;28;20056;-68
2024/03/24 07:16:04;;;;;;;5.55;1.98;;;5.90;99.90;;;;;;4162728;28;20034;-67
2024/03/24 07:18:05;;;;;;;5.38;1.88;;;5.90;99.90;;;;;;4160183;28;20431;-66
2024/03/24 07:20:07;;;;;;;2.70;1.23;;;6.00;99.90;;;;;;4161531;28;20088;-68
2024/03/24 07:22:08;;;;;;;5.18;1.65;;;6.10;99.90;;;;;;4162783;28;20032;-68
2024/03/24 07:24:09;;;;;;;5.03;1.80;;;6.10;99.90;;;;;;4162299;28;20446;-67
2024/03/24 07:26:10;;;;;;;3.30;1.77;;;6.10;99.90;;;;;;4162285;28;20033;-68
2024/03/24 07:28:10;;;;;;;3.95;1.60;;;6.20;99.90;;;;;;4161554;28;20041;-68
2024/03/24 07:30:11;;;;;;;4.03;1.58;;;6.30;99.90;;;;;;4162284;28;20473;-70
2024/03/24 07:32:12;;;;;;;5.15;2.03;;;6.30;99.90;;;;;;4162972;28;20041;-64
2024/03/24 07:34:13;;;;;;;9.20;2.58;;;6.30;99.90;;;;;;4163106;28;20108;-61
2024/03/24 07:36:13;;;;;;;4.15;2.00;;;6.30;99.90;;;;;;4162292;28;20030;-60
2024/03/24 07:38:14;;;;;;;5.63;2.38;;;6.40;99.90;;;;;;4162211;28;20041;-61
2024/03/24 07:40:15;;;;;;;4.95;2.30;;;6.50;99.90;;;;;;4162219;28;20494;-61
2024/03/24 07:42:15;;;;;;;6.85;2.83;;;6.50;99.90;;;;;;4161611;28;20033;-60
2024/03/24 07:44:17;;;;;;;5.80;2.42;;;6.60;99.90;;;;;;4162796;28;20389;-61
2024/03/24 07:46:18;;;;;;;6.15;2.63;;;6.60;99.90;;;;;;4160684;28;20048;-60
2024/03/24 07:48:19;;;;;;;3.58;1.98;;;6.60;99.90;;;;;;4162649;28;20029;-60
2024/03/24 07:50:19;;;;;;;4.55;2.08;;;6.70;99.90;;;;;;4162124;28;20479;-61
2024/03/24 07:52:20;;;;;;;5.05;2.20;;;6.70;99.90;;;;;;4157576;28;20045;-60
2024/03/24 07:54:21;;;;;;;8.35;2.70;;;6.80;99.90;;;;;;4156287;28;20104;-60
2024/03/24 07:56:21;;;;;;;9.25;2.95;;;6.80;99.90;;;;;;4161824;28;20396;-64
2024/03/24 07:58:22;;;;;;;5.93;2.72;;;6.90;99.90;;;;;;4162479;28;20358;-61
2024/03/24 08:00:23;;;;;;;9.75;3.10;;;6.90;99.90;;;;;;4161825;28;20041;-61
2024/03/24 08:02:24;;;;;;;7.07;2.88;;;6.90;99.90;;;;;;4161109;28;20076;-60
2024/03/24 08:04:24;;;;;;;4.75;2.80;;;7.00;99.90;;;;;;4161891;28;20034;-60
2024/03/24 08:06:25;;;;;;;11.68;3.72;;;7.00;99.90;;;;;;4159747;28;20391;-63
2024/03/24 08:08:26;;;;;;;11.25;4.13;;;7.10;99.90;;;;;;4162308;28;20038;-60
2024/03/24 08:10:26;;;;;;;11.30;4.10;;;7.10;99.90;;;;;;4161677;28;20052;-60
2024/03/24 08:12:27;;;;;;;6.38;3.20;;;7.10;99.90;;;;;;4159308;28;20386;-60
2024/03/24 08:14:27;;;;;;;6.25;3.50;;;7.20;99.90;;;;;;4161897;28;20041;-59
2024/03/24 08:16:28;;;;;;;11.05;4.07;;;7.30;99.90;;;;;;4161666;28;20059;-60
2024/03/24 08:18:28;;;;;;;13.98;4.75;;;7.30;99.90;;;;;;4162175;28;20034;-60
2024/03/24 08:20:29;;;;;;;16.60;4.82;;;7.40;99.90;;;;;;4161685;28;20045;-60
2024/03/24 08:22:30;;;;;;;10.10;3.85;;;7.40;99.90;;;;;;4161990;28;20068;-59
2024/03/24 08:24:30;;;;;;;9.20;3.95;;;7.40;99.90;;;;;;4161882;28;20451;-60
2024/03/24 08:26:31;;;;;;;9.23;3.63;;;7.50;99.90;;;;;;4161506;28;20490;-59
2024/03/24 08:28:31;;;;;;;8.13;4.05;;;7.60;99.90;;;;;;4162089;28;20041;-59
2024/03/24 08:30:32;;;;;;;10.18;4.88;;;7.70;99.90;;;;;;4161507;28;20124;-59
2024/03/24 08:32:33;;;;;;;10.32;3.78;;;7.80;99.90;;;;;;4161749;28;20116;-60
2024/03/24 08:34:33;;;;;;;11.07;4.65;;;8.00;99.90;;;;;;4161886;28;20036;-60
2024/03/24 08:36:34;;;;;;;8.85;4.28;;;8.10;99.90;;;;;;4161499;28;20029;-59
2024/03/24 08:38:34;;;;;;;10.95;4.55;;;8.20;99.90;;;;;;4161964;28;20048;-59
2024/03/24 08:40:35;;;;;;;12.43;4.93;;;8.30;99.90;;;;;;4161444;28;20021;-59
2024/03/24 08:42:36;;;;;;;8.60;4.28;;;8.30;99.90;;;;;;4161700;28;20040;-64
2024/03/24 08:44:36;;;;;;;11.02;4.10;;;8.50;99.90;;;;;;4161692;28;20040;-73
2024/03/24 08:46:37;;;;;;;10.85;4.30;;;8.70;99.90;;;;;;4161196;28;20411;-73
2024/03/24 08:48:38;;;;;;;14.82;4.70;;;8.90;99.90;;;;;;4159375;28;20076;-72
2024/03/24 08:50:38;;;;;;;11.00;4.38;;;9.00;99.90;;;;;;4153960;28;20030;-72
2024/03/24 08:52:39;;;;;;;9.40;3.75;;;9.10;99.90;;;;;;4158498;28;20056;-72
2024/03/24 08:54:40;;;;;;;12.70;4.15;;;9.20;99.90;;;;;;4157457;28;20497;-73
2024/03/24 08:56:40;;;;;;;11.90;4.63;;;9.20;99.90;;;;;;4160152;28;20053;-73
2024/03/24 08:58:41;;;;;;;13.73;4.65;;;9.30;99.90;;;;;;4160926;28;20115;-73
2024/03/24 09:00:47;;;;;;;10.80;3.75;;;9.40;99.90;;;;;;4160754;28;20087;-73
2024/03/24 09:02:48;;;;;;;9.70;3.85;;;9.40;99.90;;;;;;4161080;28;20037;-72
2024/03/24 09:04:53;;;;;;;9.63;3.75;;;9.40;99.90;;;;;;4160707;28;20129;-72
2024/03/24 09:06:54;;;;;;;9.45;3.50;;;9.50;99.90;;;;;;4161291;28;20026;-69
2024/03/24 09:08:54;;;;;;;9.32;4.32;;;9.50;99.90;;;;;;4161417;28;20395;-72
2024/03/24 09:10:55;;;;;;;17.15;4.75;;;9.50;99.90;;;;;;4194359;28;20059;-72
2024/03/24 09:12:56;;;;;;;10.45;3.53;;;9.40;99.90;;;;;;4163906;28;20128;-71
2024/03/24 09:14:56;;;;;;;15.20;4.95;;;9.50;99.90;;;;;;4165151;28;20029;-74
2024/03/24 09:16:57;;;;;;;13.30;3.85;;;9.60;99.90;;;;;;4164004;28;20363;-73
2024/03/24 09:18:57;;;;;;;10.93;3.83;;;9.60;99.90;;;;;;4171572;28;20039;-73
2024/03/24 09:21:04;;;;;;;6.90;3.40;;;9.70;99.90;;;;;;4170839;28;20029;-73
2024/03/24 09:23:05;;;;;;;11.65;3.92;;;9.80;99.90;;;;;;4165113;28;20045;-73
2024/03/24 09:25:05;;;;;;;11.57;3.90;;;9.70;99.90;;;;;;4162667;28;20030;-73
2024/03/24 09:27:06;;;;;;;13.38;3.78;;;9.70;99.90;;;;;;4164099;28;20028;-72
2024/03/24 09:29:07;;;;;;;11.70;3.22;;;9.60;99.90;;;;;;4164837;28;20097;-73
2024/03/24 09:31:09;;;;;;;9.15;3.47;;;9.60;99.90;;;;;;4164064;28;20474;-73
2024/03/24 09:33:10;;;;;;;;;;;9.60;99.90;;;;;;4165376;28;20031;-73
2024/03/24 09:35:10;;;;;;;9.50;4.20;;;9.60;99.90;;;;;;4162084;28;19940;-72
2024/03/24 09:37:12;;;;;;;10.88;3.35;;;9.70;99.90;;;;;;4164724;28;20034;-72
2024/03/24 09:39:13;;;;;;;14.63;3.38;;;9.80;99.90;;;;;;4164040;28;20041;-72
2024/03/24 09:41:15;;;;;;;11.18;3.05;;;9.80;99.90;;;;;;4163364;28;20038;-72
2024/03/24 09:43:17;;;;;;;9.98;3.00;;;9.90;99.90;;;;;;4163765;28;20063;-72
2024/03/24 09:45:18;;;;;;;12.30;3.10;;;9.90;99.90;;;;;;4163698;28;20095;-73
2024/03/24 09:47:20;;;;;;;8.80;3.35;;;9.90;99.90;;;;;;4164554;28;20040;-73
2024/03/24 09:49:25;;;;;;;11.63;3.03;;;9.90;99.90;;;;;;4162129;28;20478;-73
2024/03/24 09:51:27;;;;;;;8.45;3.22;;;10.00;99.90;;;;;;4163713;28;20389;-71
2024/03/24 09:53:30;;;;;;;10.02;3.42;;;10.10;99.90;;;;;;4164803;28;20064;-67
2024/03/24 09:55:30;;;;;;;11.98;3.28;;;10.20;99.90;;;;;;4163569;28;20041;-69
2024/03/24 09:57:35;;;;;;;8.65;3.20;;;10.40;99.90;;;;;;4162847;28;20573;-67
2024/03/24 09:59:37;;;;;;;9.95;3.35;;;10.50;99.90;;;;;;4163943;28;20044;-67
2024/03/24 10:01:38;;;;;;;11.63;3.22;;;10.50;99.90;;;;;;4177297;28;20032;-67
2024/03/24 10:03:42;;;;;;;12.43;3.10;;;10.60;99.90;;;;;;4145769;28;20390;-67
2024/03/24 10:05:43;;;;;;;11.80;3.22;;;10.70;99.90;;;;;;4147985;28;20049;-67
2024/03/24 10:07:44;;;;;;;16.30;3.13;;;10.70;99.90;;;;;;4162550;28;20034;-67
2024/03/24 10:09:45;;;;;;;12.10;3.00;;;10.70;99.90;;;;;;4163372;28;20033;-73
2024/03/24 10:11:45;;;;;;;10.52;3.45;;;10.60;99.90;;;;;;4160148;28;20051;-71
2024/03/24 10:13:46;;;;;;;8.48;3.10;;;10.50;99.90;;;;;;4155401;28;20041;-71
2024/03/24 10:15:47;;;;;;;7.28;2.55;;;10.50;99.90;;;;;;4150427;28;20529;-71
2024/03/24 10:18:07;;;;;;;11.48;3.00;;;10.40;99.90;;;;;;4159580;28;20492;-72
2024/03/24 10:20:12;;;;;;;8.50;2.55;;;10.40;99.90;;;;;;4150865;28;20501;-71
2024/03/24 10:22:13;;;;;;;11.32;3.35;;;10.30;99.90;;;;;;4151206;28;20108;-71
2024/03/24 10:24:16;;;;;;;8.63;2.63;;;10.30;99.90;;;;;;4149509;28;20529;-71
2024/03/24 10:26:19;;;;;;;;;;;10.30;99.90;;;;;;4150198;28;20494;-71
2024/03/24 10:28:20;;;;;;;10.13;2.40;;;10.20;99.90;;;;;;4149917;28;20348;-71
2024/03/24 10:30:22;;;;;;;10.13;2.10;;;10.20;99.90;;;;;;4152150;28;20078;-71
2024/03/24 10:32:24;;;;;;;11.95;2.50;;;10.20;99.90;;;;;;4151692;28;20536;-72
2024/03/24 10:34:33;;;;;;;9.73;2.95;;;10.20;99.90;;;;;;4141641;28;20071;-72
2024/03/24 10:36:37;;;;;;;11.55;2.58;;;10.20;99.90;;;;;;4139903;28;20049;-72